Time;durP1;ratioP1;P1;durP2;ratioP2;P2;SDS_P1;SDS_P2;PMS_P1;PMS_P2;Temp;Humidity;BMP_temperature;BMP_pressure;BME280_temperature;BME280_humidity;BME280_pressure;Samples;Min_cycle;Max_cycle;Signal;HPM_P1;HPM_P2
2022/08/14 00:00:42;;;;;;;10.27;6.10;;;;;;;;;;5033076;28;20038;-75
2022/08/14 00:03:16;;;;;;;9.33;5.93;;;;;;;;;;5034780;28;20039;-75
2022/08/14 00:05:41;;;;;;;8.82;5.88;;;;;;;;;;5030032;28;20049;-75
2022/08/14 00:08:07;;;;;;;12.23;6.68;;;;;;;;;;5036688;28;20065;-76
2022/08/14 00:10:32;;;;;;;7.88;5.75;;;;;;;;;;5033709;28;20052;-75
2022/08/14 00:12:57;;;;;;;9.90;5.95;;;;;;;;;;5041662;28;20013;-75
2022/08/14 00:15:27;;;;;;;13.98;5.97;;;;;;;;;;5040956;28;20033;-74
2022/08/14 00:17:53;;;;;;;9.15;6.40;;;;;;;;;;5035743;28;20029;-75
2022/08/14 00:20:20;;;;;;;9.98;5.93;;;;;;;;;;5045485;28;20095;-74
2022/08/14 00:22:45;;;;;;;9.23;6.18;;;;;;;;;;5042663;28;20045;-75
2022/08/14 00:25:11;;;;;;;11.35;6.22;;;;;;;;;;5040499;28;20499;-75
2022/08/14 00:27:36;;;;;;;9.05;6.85;;;;;;;;;;5036388;28;20022;-75
2022/08/14 00:30:04;;;;;;;7.93;6.47;;;;;;;;;;5049094;28;20083;-74
2022/08/14 00:32:29;;;;;;;11.18;6.30;;;;;;;;;;5043266;28;20104;-75
2022/08/14 00:34:55;;;;;;;8.65;6.53;;;;;;;;;;5041121;28;20096;-75
2022/08/14 00:37:21;;;;;;;11.63;6.45;;;;;;;;;;5038625;28;20540;-75
2022/08/14 00:39:47;;;;;;;9.10;6.80;;;;;;;;;;5043504;28;20184;-75
2022/08/14 00:42:12;;;;;;;12.20;6.30;;;;;;;;;;5042669;28;20027;-75
2022/08/14 00:44:37;;;;;;;8.77;6.30;;;;;;;;;;5040111;28;20423;-75
2022/08/14 00:47:07;;;;;;;10.48;5.57;;;;;;;;;;5045025;28;20029;-74
2022/08/14 00:49:32;;;;;;;8.55;6.00;;;;;;;;;;5042573;28;20037;-75
2022/08/14 00:51:59;;;;;;;9.32;6.53;;;;;;;;;;5038991;28;20029;-74
2022/08/14 00:54:25;;;;;;;8.40;6.68;;;;;;;;;;5036459;28;20026;-74
2022/08/14 00:56:51;;;;;;;9.68;7.10;;;;;;;;;;5036311;28;20445;-73
2022/08/14 00:59:16;;;;;;;7.68;6.53;;;;;;;;;;5049071;28;20400;-73
2022/08/14 01:01:41;;;;;;;10.35;6.40;;;;;;;;;;5037114;28;20036;-74
2022/08/14 01:04:07;;;;;;;8.60;6.43;;;;;;;;;;5039314;28;20033;-74
2022/08/14 01:06:33;;;;;;;9.07;6.50;;;;;;;;;;5027826;28;20091;-75
2022/08/14 01:09:01;;;;;;;10.75;6.57;;;;;;;;;;5039849;28;20035;-74
2022/08/14 01:11:27;;;;;;;10.48;7.03;;;;;;;;;;5044826;28;20017;-73
2022/08/14 01:13:53;;;;;;;10.82;7.07;;;;;;;;;;5049035;28;20533;-74
2022/08/14 01:16:19;;;;;;;10.75;7.35;;;;;;;;;;5037905;28;20079;-75
2022/08/14 01:21:32;;;;;;;10.73;7.22;;;;;;;;;;5037312;28;20080;-74
2022/08/14 01:23:57;;;;;;;8.85;6.85;;;;;;;;;;5037002;28;20496;-74
2022/08/14 01:26:24;;;;;;;8.90;6.68;;;;;;;;;;5038977;28;20053;-75
2022/08/14 01:28:54;;;;;;;8.57;7.43;;;;;;;;;;5038103;28;20026;-74
2022/08/14 01:31:19;;;;;;;9.48;7.63;;;;;;;;;;5041459;28;20047;-74
2022/08/14 01:33:47;;;;;;;11.65;7.53;;;;;;;;;;5037205;28;20033;-74
2022/08/14 01:36:14;;;;;;;10.25;7.90;;;;;;;;;;5036287;28;20444;-74
2022/08/14 01:38:41;;;;;;;10.13;7.90;;;;;;;;;;5036951;28;20484;-73
2022/08/14 01:41:07;;;;;;;12.25;7.70;;;;;;;;;;5040140;28;20468;-73
2022/08/14 01:43:42;;;;;;;12.52;7.53;;;;;;;;;;5039703;28;20056;-73
2022/08/14 01:46:10;;;;;;;9.70;8.05;;;;;;;;;;5036564;28;20107;-73
2022/08/14 01:48:35;;;;;;;13.82;7.88;;;;;;;;;;5038229;28;20037;-75
2022/08/14 01:51:01;;;;;;;11.20;7.90;;;;;;;;;;5042570;28;20486;-74
2022/08/14 01:53:27;;;;;;;11.55;8.20;;;;;;;;;;5036768;28;20029;-74
2022/08/14 01:55:56;;;;;;;11.95;7.75;;;;;;;;;;5045694;28;20376;-75
2022/08/14 01:58:22;;;;;;;15.68;8.65;;;;;;;;;;5039906;28;20358;-75
2022/08/14 02:00:52;;;;;;;12.02;8.20;;;;;;;;;;5036628;28;20530;-75
2022/08/14 02:03:18;;;;;;;12.38;8.30;;;;;;;;;;5043612;28;20048;-74
2022/08/14 02:05:43;;;;;;;11.43;8.70;;;;;;;;;;5038762;28;20064;-74
2022/08/14 02:08:08;;;;;;;11.50;9.02;;;;;;;;;;5038766;28;20030;-74
2022/08/14 02:10:34;;;;;;;13.43;9.32;;;;;;;;;;5041405;28;20101;-75
2022/08/14 02:13:06;;;;;;;11.35;8.45;;;;;;;;;;5042861;28;20124;-74
2022/08/14 02:15:32;;;;;;;15.43;9.18;;;;;;;;;;5039370;28;20109;-74
2022/08/14 02:18:00;;;;;;;13.75;9.00;;;;;;;;;;5044539;28;20116;-74
2022/08/14 02:20:27;;;;;;;14.20;9.85;;;;;;;;;;5043225;28;20029;-73
2022/08/14 02:22:53;;;;;;;13.23;9.70;;;;;;;;;;5048051;28;20076;-73
2022/08/14 02:25:18;;;;;;;13.10;9.85;;;;;;;;;;5033836;28;20448;-74
2022/08/14 02:27:44;;;;;;;14.48;10.32;;;;;;;;;;5042272;28;20078;-73
2022/08/14 02:30:10;;;;;;;16.10;9.93;;;;;;;;;;5033250;28;20120;-73
2022/08/14 02:32:37;;;;;;;14.80;10.23;;;;;;;;;;5040852;28;20036;-75
2022/08/14 02:35:05;;;;;;;14.50;10.02;;;;;;;;;;5034749;28;20017;-73
2022/08/14 02:37:31;;;;;;;13.35;10.15;;;;;;;;;;5034420;28;20029;-74
2022/08/14 02:39:56;;;;;;;16.92;10.98;;;;;;;;;;5038083;28;20447;-74
2022/08/14 02:42:23;;;;;;;17.58;10.52;;;;;;;;;;5034259;28;20053;-74
2022/08/14 02:44:49;;;;;;;14.95;10.75;;;;;;;;;;5036756;28;20045;-73
2022/08/14 02:47:14;;;;;;;17.83;11.13;;;;;;;;;;5041588;28;20131;-74
2022/08/14 02:49:39;;;;;;;14.38;10.43;;;;;;;;;;5037732;28;20025;-74
2022/08/14 02:52:06;;;;;;;15.05;10.50;;;;;;;;;;5035253;28;20030;-74
2022/08/14 02:54:33;;;;;;;14.80;10.88;;;;;;;;;;5039716;28;20025;-73
2022/08/14 02:56:58;;;;;;;20.05;11.68;;;;;;;;;;5037937;28;20026;-73
2022/08/14 02:59:27;;;;;;;14.23;10.70;;;;;;;;;;5038478;28;20040;-74
2022/08/14 03:01:52;;;;;;;16.00;10.65;;;;;;;;;;5044296;28;20029;-74
2022/08/14 03:04:18;;;;;;;19.38;11.40;;;;;;;;;;5045045;28;20028;-74
2022/08/14 03:06:45;;;;;;;16.65;11.02;;;;;;;;;;5038019;28;20480;-76
2022/08/14 03:09:10;;;;;;;17.35;12.45;;;;;;;;;;5045956;28;20110;-74
2022/08/14 03:11:36;;;;;;;18.13;12.65;;;;;;;;;;5034201;28;20056;-74
2022/08/14 03:14:01;;;;;;;20.77;12.18;;;;;;;;;;5042027;28;20069;-74
2022/08/14 03:16:26;;;;;;;17.92;11.75;;;;;;;;;;5033726;28;20033;-74
2022/08/14 03:18:55;;;;;;;17.38;12.48;;;;;;;;;;5043504;28;20025;-74
2022/08/14 03:21:21;;;;;;;18.02;12.15;;;;;;;;;;5034780;28;20025;-74
2022/08/14 03:23:48;;;;;;;17.65;13.15;;;;;;;;;;5044843;28;20051;-74
2022/08/14 03:26:17;;;;;;;19.65;12.88;;;;;;;;;;5036526;28;20120;-74
2022/08/14 03:28:48;;;;;;;20.13;12.48;;;;;;;;;;5020763;28;20038;-74
2022/08/14 03:31:14;;;;;;;17.60;12.40;;;;;;;;;;5039259;28;20552;-74
2022/08/14 03:33:39;;;;;;;20.70;13.00;;;;;;;;;;5041705;28;20101;-74
2022/08/14 03:36:11;;;;;;;22.30;13.32;;;;;;;;;;5039393;28;20108;-74
2022/08/14 03:38:41;;;;;;;18.70;12.82;;;;;;;;;;5036541;28;20415;-73
2022/08/14 03:41:15;;;;;;;18.77;13.05;;;;;;;;;;5038558;28;20013;-73
2022/08/14 03:43:41;;;;;;;19.23;12.95;;;;;;;;;;5041592;28;20091;-73
2022/08/14 03:46:07;;;;;;;22.55;13.00;;;;;;;;;;5039216;28;20358;-72
2022/08/14 03:48:32;;;;;;;22.33;13.13;;;;;;;;;;5043423;28;20056;-72
2022/08/14 03:50:58;;;;;;;20.65;12.85;;;;;;;;;;5047353;28;20052;-72
2022/08/14 03:53:23;;;;;;;22.50;13.98;;;;;;;;;;5050375;28;20456;-72
2022/08/14 03:55:49;;;;;;;22.60;14.05;;;;;;;;;;5037425;28;20461;-72
2022/08/14 03:58:15;;;;;;;21.77;14.05;;;;;;;;;;5045818;28;20464;-73
2022/08/14 04:00:40;;;;;;;24.25;14.50;;;;;;;;;;5047373;28;20030;-74
2022/08/14 04:03:07;;;;;;;20.38;13.93;;;;;;;;;;5041905;28;20133;-75
2022/08/14 04:05:32;;;;;;;22.50;14.23;;;;;;;;;;5033041;28;20041;-74
2022/08/14 04:07:58;;;;;;;23.17;14.40;;;;;;;;;;5036925;28;20029;-74
2022/08/14 04:10:25;;;;;;;25.02;14.50;;;;;;;;;;5037984;28;20487;-74
2022/08/14 04:12:50;;;;;;;19.38;13.60;;;;;;;;;;5055471;28;20029;-74
2022/08/14 04:15:20;;;;;;;21.45;14.07;;;;;;;;;;5042056;28;20079;-74
2022/08/14 04:17:45;;;;;;;24.25;14.60;;;;;;;;;;5045363;28;20350;-73
2022/08/14 04:20:11;;;;;;;22.65;13.90;;;;;;;;;;5036101;28;20028;-74
2022/08/14 04:22:37;;;;;;;24.80;14.93;;;;;;;;;;5049829;28;20073;-74
2022/08/14 04:25:03;;;;;;;23.98;15.23;;;;;;;;;;5037870;28;20091;-73
2022/08/14 04:27:28;;;;;;;23.42;14.05;;;;;;;;;;5035944;28;20033;-74
2022/08/14 04:29:53;;;;;;;23.95;14.60;;;;;;;;;;5046148;28;20096;-73
2022/08/14 04:32:22;;;;;;;20.90;14.80;;;;;;;;;;5050346;28;20120;-74
2022/08/14 04:34:47;;;;;;;22.90;14.38;;;;;;;;;;5037865;28;20032;-74
2022/08/14 04:45:25;;;;;;;21.15;14.05;;;;;;;;;;5044866;28;20052;-74
2022/08/14 04:50:35;;;;;;;21.77;14.77;;;;;;;;;;5027311;28;20129;-73
2022/08/14 04:53:01;;;;;;;26.33;14.55;;;;;;;;;;5045962;28;20544;-73
2022/08/14 04:55:26;;;;;;;24.25;14.38;;;;;;;;;;5040301;28;20040;-72
2022/08/14 04:57:52;;;;;;;21.58;14.55;;;;;;;;;;5047037;28;20024;-73
2022/08/14 05:00:17;;;;;;;25.42;14.35;;;;;;;;;;5043056;28;20435;-73
2022/08/14 05:02:42;;;;;;;22.85;13.70;;;;;;;;;;5044698;28;20034;-73
2022/08/14 05:05:08;;;;;;;21.73;14.27;;;;;;;;;;5045359;28;20068;-73
2022/08/14 05:07:33;;;;;;;28.50;13.88;;;;;;;;;;5036735;28;20028;-73
2022/08/14 05:09:58;;;;;;;19.98;13.05;;;;;;;;;;5051781;28;20032;-73
2022/08/14 05:12:23;;;;;;;22.77;13.63;;;;;;;;;;5040658;28;20369;-73
2022/08/14 05:14:49;;;;;;;19.40;13.27;;;;;;;;;;5047448;28;20028;-74
2022/08/14 05:17:14;;;;;;;22.20;13.82;;;;;;;;;;5039400;28;20043;-74
2022/08/14 05:19:40;;;;;;;24.88;13.27;;;;;;;;;;5037011;28;20404;-74
2022/08/14 05:22:06;;;;;;;17.13;11.68;;;;;;;;;;5038658;28;20499;-73
2022/08/14 05:24:31;;;;;;;19.08;11.88;;;;;;;;;;5048881;28;20394;-74
2022/08/14 05:26:58;;;;;;;16.92;11.88;;;;;;;;;;5040067;28;20146;-73
2022/08/14 05:29:24;;;;;;;20.02;12.38;;;;;;;;;;5036458;28;20500;-73
2022/08/14 05:31:49;;;;;;;18.58;11.32;;;;;;;;;;5040981;28;20037;-73
2022/08/14 05:34:15;;;;;;;17.23;10.43;;;;;;;;;;5034203;28;20026;-73
2022/08/14 05:36:41;;;;;;;14.55;10.07;;;;;;;;;;5044027;28;20484;-73
2022/08/14 05:39:06;;;;;;;13.20;9.70;;;;;;;;;;5040867;28;20033;-73
2022/08/14 05:41:33;;;;;;;17.02;10.00;;;;;;;;;;5044939;28;20021;-74
2022/08/14 05:43:58;;;;;;;11.85;9.13;;;;;;;;;;5039619;28;20049;-74
2022/08/14 05:46:24;;;;;;;14.63;9.02;;;;;;;;;;5047917;28;20434;-73
2022/08/14 05:48:55;;;;;;;14.25;8.60;;;;;;;;;;5044751;28;20021;-73
2022/08/14 05:51:20;;;;;;;10.45;6.85;;;;;;;;;;5050067;28;20032;-74
2022/08/14 05:53:45;;;;;;;7.80;4.93;;;;;;;;;;5040945;28;20392;-75
2022/08/14 05:56:11;;;;;;;11.82;4.50;;;;;;;;;;5047313;28;20100;-74
2022/08/14 05:58:36;;;;;;;5.20;3.72;;;;;;;;;;5041352;28;20103;-74
2022/08/14 06:01:01;;;;;;;4.75;3.63;;;;;;;;;;5034535;28;20040;-74
2022/08/14 06:03:26;;;;;;;5.80;3.22;;;;;;;;;;5039994;28;20037;-73
2022/08/14 06:05:53;;;;;;;4.53;3.13;;;;;;;;;;5035137;28;20029;-75
2022/08/14 06:08:26;;;;;;;5.25;3.22;;;;;;;;;;5034864;28;20104;-75
2022/08/14 06:10:52;;;;;;;3.90;3.03;;;;;;;;;;5046050;28;20032;-75
2022/08/14 06:13:18;;;;;;;4.90;2.83;;;;;;;;;;5042016;28;20029;-75
2022/08/14 06:15:43;;;;;;;3.78;2.67;;;;;;;;;;5046473;28;20392;-75
2022/08/14 06:18:10;;;;;;;4.28;2.78;;;;;;;;;;5041012;28;20440;-75
2022/08/14 06:20:35;;;;;;;4.43;2.50;;;;;;;;;;5043832;28;20040;-75
2022/08/14 06:23:01;;;;;;;4.80;2.40;;;;;;;;;;5048108;28;20044;-75
2022/08/14 06:25:27;;;;;;;3.88;2.70;;;;;;;;;;5050377;28;20048;-73
2022/08/14 06:27:52;;;;;;;3.47;2.60;;;;;;;;;;5050691;28;20494;-75
2022/08/14 06:30:18;;;;;;;3.67;2.70;;;;;;;;;;5047855;28;20036;-74
2022/08/14 06:32:44;;;;;;;3.63;2.50;;;;;;;;;;5045075;28;20021;-75
2022/08/14 06:35:11;;;;;;;4.68;2.70;;;;;;;;;;5041643;28;20025;-74
2022/08/14 06:37:40;;;;;;;3.35;2.30;;;;;;;;;;5045682;28;20017;-74
2022/08/14 06:40:07;;;;;;;3.90;2.60;;;;;;;;;;5044558;28;20013;-75
2022/08/14 06:42:32;;;;;;;3.47;2.40;;;;;;;;;;5043938;28;20060;-74
2022/08/14 06:45:00;;;;;;;3.83;2.45;;;;;;;;;;5039536;28;20060;-74
2022/08/14 06:47:25;;;;;;;3.83;2.65;;;;;;;;;;5036680;28;20017;-75
2022/08/14 06:49:51;;;;;;;3.85;2.47;;;;;;;;;;5044496;28;20032;-75
2022/08/14 06:52:16;;;;;;;4.90;2.50;;;;;;;;;;5041169;28;20376;-75
2022/08/14 06:54:41;;;;;;;3.15;2.45;;;;;;;;;;5043525;28;20078;-75
2022/08/14 06:57:06;;;;;;;3.80;2.58;;;;;;;;;;5044836;28;20044;-75
2022/08/14 06:59:32;;;;;;;4.28;2.60;;;;;;;;;;5043405;28;20096;-75
2022/08/14 07:07:33;;;;;;;5.35;2.60;;;;;;;;;;5036679;28;20028;-75
2022/08/14 07:09:59;;;;;;;5.25;2.33;;;;;;;;;;5047650;28;20028;-75
2022/08/14 07:12:24;;;;;;;3.13;2.42;;;;;;;;;;5048747;28;20350;-75
2022/08/14 07:14:50;;;;;;;7.30;2.65;;;;;;;;;;5036113;28;20028;-75
2022/08/14 07:17:15;;;;;;;4.63;2.53;;;;;;;;;;5044419;28;20064;-75
2022/08/14 07:19:40;;;;;;;3.78;2.17;;;;;;;;;;5040716;28;20021;-75
2022/08/14 07:22:05;;;;;;;4.82;2.70;;;;;;;;;;5041967;28;20049;-75
2022/08/14 07:24:31;;;;;;;4.05;2.60;;;;;;;;;;5045079;28;20128;-74
2022/08/14 07:26:56;;;;;;;3.50;2.53;;;;;;;;;;5036474;28;20033;-75
2022/08/14 07:29:21;;;;;;;3.60;2.33;;;;;;;;;;5040327;28;20079;-74
2022/08/14 07:31:46;;;;;;;5.57;2.60;;;;;;;;;;5047584;28;20036;-75
2022/08/14 07:34:12;;;;;;;3.42;2.47;;;;;;;;;;5050447;28;20444;-75
2022/08/14 07:36:37;;;;;;;3.67;2.47;;;;;;;;;;5045835;28;20064;-74
2022/08/14 07:39:03;;;;;;;4.90;2.50;;;;;;;;;;5045317;28;20071;-74
2022/08/14 07:41:29;;;;;;;3.40;2.50;;;;;;;;;;5038981;28;20024;-74
2022/08/14 07:43:54;;;;;;;5.40;2.45;;;;;;;;;;5046924;28;20034;-75
2022/08/14 07:46:19;;;;;;;3.35;2.42;;;;;;;;;;5048665;28;20059;-75
2022/08/14 07:48:47;;;;;;;7.57;2.47;;;;;;;;;;5042369;28;20078;-76
2022/08/14 07:51:12;;;;;;;3.10;2.10;;;;;;;;;;5041101;28;20013;-75
2022/08/14 07:53:38;;;;;;;3.53;2.20;;;;;;;;;;5042071;28;20028;-76
2022/08/14 07:56:04;;;;;;;5.38;3.00;;;;;;;;;;5044254;28;20022;-73
2022/08/14 07:58:29;;;;;;;5.13;2.58;;;;;;;;;;5039759;28;20028;-73
2022/08/14 08:00:55;;;;;;;3.88;2.28;;;;;;;;;;5043596;28;20395;-72
2022/08/14 08:03:21;;;;;;;4.47;2.30;;;;;;;;;;5036370;28;20079;-73
2022/08/14 08:05:47;;;;;;;6.90;2.53;;;;;;;;;;5035069;28;20034;-74
2022/08/14 08:08:14;;;;;;;6.43;2.60;;;;;;;;;;5036509;28;20033;-74
2022/08/14 08:10:41;;;;;;;3.70;2.50;;;;;;;;;;5028166;28;20100;-73
2022/08/14 08:13:09;;;;;;;4.05;2.30;;;;;;;;;;5046157;28;20045;-73
2022/08/14 08:15:40;;;;;;;5.65;2.78;;;;;;;;;;5038222;28;20037;-73
2022/08/14 08:18:06;;;;;;;6.25;2.67;;;;;;;;;;5036526;28;20029;-73
2022/08/14 08:20:33;;;;;;;8.45;2.30;;;;;;;;;;5039891;28;20017;-74
2022/08/14 08:22:59;;;;;;;4.22;2.28;;;;;;;;;;5041447;28;20059;-74
2022/08/14 08:25:25;;;;;;;3.78;2.40;;;;;;;;;;5036964;28;20380;-73
2022/08/14 08:28:14;;;;;;;6.00;2.45;;;;;;;;;;5047641;28;20017;-74
2022/08/14 08:30:41;;;;;;;6.25;2.40;;;;;;;;;;5043858;28;20400;-73
2022/08/14 08:33:07;;;;;;;4.88;2.38;;;;;;;;;;5045256;28;20027;-73
2022/08/14 08:35:34;;;;;;;3.00;2.28;;;;;;;;;;5038442;28;20033;-74
2022/08/14 08:38:04;;;;;;;7.30;2.22;;;;;;;;;;5045114;28;20107;-73
2022/08/14 08:40:36;;;;;;;6.22;2.50;;;;;;;;;;5040951;28;20029;-73
2022/08/14 08:43:05;;;;;;;7.95;2.70;;;;;;;;;;5044471;28;20472;-73
2022/08/14 08:45:31;;;;;;;4.93;2.33;;;;;;;;;;5039492;28;20029;-74
2022/08/14 08:47:56;;;;;;;8.25;2.63;;;;;;;;;;5039232;28;20041;-73
2022/08/14 08:50:35;;;;;;;7.40;2.25;;;;;;;;;;5043492;28;20039;-74
2022/08/14 08:53:02;;;;;;;4.65;2.35;;;;;;;;;;5040451;28;20026;-75
2022/08/14 08:55:29;;;;;;;7.47;2.35;;;;;;;;;;5046206;28;20110;-75
2022/08/14 08:57:55;;;;;;;3.80;2.22;;;;;;;;;;5041226;28;20353;-75
2022/08/14 09:00:20;;;;;;;6.68;2.30;;;;;;;;;;5035409;28;20018;-75
2022/08/14 09:03:05;;;;;;;8.20;2.42;;;;;;;;;;5037495;28;20044;-77
2022/08/14 09:05:32;;;;;;;7.85;2.65;;;;;;;;;;5054504;28;20028;-75
2022/08/14 09:08:13;;;;;;;7.70;2.08;;;;;;;;;;5052279;28;20410;-75
2022/08/14 09:10:38;;;;;;;14.40;2.90;;;;;;;;;;5049387;28;20056;-75
2022/08/14 09:13:04;;;;;;;6.88;2.42;;;;;;;;;;5048583;28;20065;-75
2022/08/14 09:15:29;;;;;;;4.75;2.08;;;;;;;;;;5048276;28;20030;-75
2022/08/14 09:17:55;;;;;;;6.35;2.47;;;;;;;;;;5045857;28;20048;-74
2022/08/14 09:20:20;;;;;;;7.13;2.45;;;;;;;;;;5045574;28;20055;-75
2022/08/14 09:22:46;;;;;;;4.53;2.28;;;;;;;;;;5052259;28;20179;-74
2022/08/14 09:25:11;;;;;;;5.90;2.17;;;;;;;;;;5044251;28;20092;-74
2022/08/14 09:27:37;;;;;;;6.03;2.15;;;;;;;;;;5048266;28;20159;-75
2022/08/14 09:30:06;;;;;;;15.90;2.70;;;;;;;;;;5048681;28;20020;-75
2022/08/14 09:32:38;;;;;;;10.98;2.58;;;;;;;;;;5048879;28;20246;-75
2022/08/14 09:35:12;;;;;;;3.25;2.20;;;;;;;;;;5046028;28;20037;-75
2022/08/14 09:37:40;;;;;;;5.93;2.10;;;;;;;;;;5037249;28;20035;-76
2022/08/14 09:40:09;;;;;;;4.45;1.90;;;;;;;;;;5033314;28;20037;-78
2022/08/14 09:42:42;;;;;;;7.32;2.20;;;;;;;;;;5044383;28;20477;-77
2022/08/14 09:45:16;;;;;;;5.32;2.08;;;;;;;;;;5046776;28;20080;-79
2022/08/14 09:47:43;;;;;;;7.57;2.20;;;;;;;;;;5041118;28;20037;-77
2022/08/14 09:50:28;;;;;;;4.18;2.03;;;;;;;;;;5047146;28;20025;-79
2022/08/14 09:53:03;;;;;;;9.82;2.00;;;;;;;;;;5050331;28;20044;-78
2022/08/14 09:55:33;;;;;;;6.47;2.05;;;;;;;;;;5042357;28;20044;-76
2022/08/14 09:58:14;;;;;;;3.17;2.00;;;;;;;;;;5044378;28;20025;-77
2022/08/14 10:00:44;;;;;;;4.45;2.20;;;;;;;;;;5046343;28;20033;-77
2022/08/14 10:03:10;;;;;;;4.97;1.90;;;;;;;;;;5045590;28;20492;-77
2022/08/14 10:05:36;;;;;;;2.85;2.00;;;;;;;;;;5037182;28;20025;-77
2022/08/14 10:08:02;;;;;;;7.28;2.20;;;;;;;;;;5046841;28;20035;-76
2022/08/14 10:10:36;;;;;;;6.97;1.98;;;;;;;;;;5041773;28;20510;-78
2022/08/14 10:13:02;;;;;;;7.40;2.08;;;;;;;;;;5040987;28;20025;-75
2022/08/14 10:15:28;;;;;;;7.07;2.20;;;;;;;;;;5047060;28;20038;-75
2022/08/14 10:18:06;;;;;;;4.13;2.00;;;;;;;;;;5049721;28;20033;-76
2022/08/14 10:20:40;;;;;;;7.13;1.80;;;;;;;;;;5026518;28;20032;-75
2022/08/14 10:23:12;;;;;;;7.43;2.10;;;;;;;;;;5035399;28;20464;-75
2022/08/14 10:25:38;;;;;;;9.85;1.83;;;;;;;;;;5037437;28;20476;-77
2022/08/14 10:28:04;;;;;;;8.80;1.80;;;;;;;;;;5042276;28;20041;-76
2022/08/14 10:30:33;;;;;;;5.77;1.80;;;;;;;;;;5047923;28;20013;-75
2022/08/14 10:32:59;;;;;;;5.65;1.75;;;;;;;;;;5050043;28;20250;-75
2022/08/14 10:35:24;;;;;;;5.78;1.88;;;;;;;;;;5037610;28;20476;-76
2022/08/14 10:37:50;;;;;;;6.93;2.10;;;;;;;;;;5035006;28;20017;-75
2022/08/14 10:40:26;;;;;;;7.15;1.80;;;;;;;;;;5033223;28;20087;-74
2022/08/14 10:42:52;;;;;;;3.83;1.83;;;;;;;;;;5034501;28;20025;-77
2022/08/14 10:45:28;;;;;;;10.85;1.85;;;;;;;;;;5033244;28;20401;-75
2022/08/14 10:47:54;;;;;;;7.40;1.90;;;;;;;;;;5033895;28;20025;-74
2022/08/14 10:50:32;;;;;;;4.43;1.88;;;;;;;;;;5034794;28;20470;-74
2022/08/14 10:53:04;;;;;;;6.22;1.77;;;;;;;;;;5033909;28;20037;-74
2022/08/14 10:55:38;;;;;;;6.28;1.88;;;;;;;;;;5048006;28;20534;-74
2022/08/14 10:58:10;;;;;;;6.45;2.00;;;;;;;;;;5046687;28;20025;-74
2022/08/14 11:00:36;;;;;;;4.65;1.90;;;;;;;;;;5049351;28;20028;-74
2022/08/14 11:03:12;;;;;;;2.95;1.80;;;;;;;;;;5043515;28;20022;-74
2022/08/14 11:05:38;;;;;;;7.13;1.60;;;;;;;;;;5038333;28;20031;-74
2022/08/14 11:08:03;;;;;;;3.92;1.50;;;;;;;;;;5042484;28;20112;-73
2022/08/14 11:10:37;;;;;;;3.08;1.60;;;;;;;;;;5047952;28;20115;-77
2022/08/14 11:13:03;;;;;;;3.78;1.70;;;;;;;;;;5036523;28;20119;-74
2022/08/14 11:15:29;;;;;;;7.00;1.83;;;;;;;;;;5042414;28;20041;-74
2022/08/14 11:17:55;;;;;;;6.38;1.52;;;;;;;;;;5042955;28;20032;-74
2022/08/14 11:20:22;;;;;;;4.35;1.52;;;;;;;;;;5045469;28;20025;-74
2022/08/14 11:22:50;;;;;;;5.18;1.92;;;;;;;;;;5040513;28;20052;-75
2022/08/14 11:25:16;;;;;;;8.55;2.17;;;;;;;;;;5038090;28;20528;-74
2022/08/14 11:27:43;;;;;;;4.10;1.67;;;;;;;;;;5044257;28;20056;-74
2022/08/14 11:30:18;;;;;;;2.97;1.80;;;;;;;;;;5038864;28;20063;-74
2022/08/14 11:32:44;;;;;;;5.68;1.38;;;;;;;;;;5039036;28;20025;-74
2022/08/14 11:35:11;;;;;;;4.38;1.70;;;;;;;;;;5038836;28;20076;-74
2022/08/14 11:37:38;;;;;;;4.10;1.30;;;;;;;;;;5037713;28;20055;-74
2022/08/14 11:40:03;;;;;;;6.57;1.40;;;;;;;;;;5045047;28;20079;-74
2022/08/14 11:42:31;;;;;;;4.07;1.20;;;;;;;;;;5041989;28;20032;-74
2022/08/14 11:44:57;;;;;;;4.93;1.52;;;;;;;;;;5038241;28;20025;-74
2022/08/14 11:47:23;;;;;;;2.67;1.20;;;;;;;;;;5039625;28;20380;-76
2022/08/14 11:49:48;;;;;;;6.80;1.40;;;;;;;;;;5020134;28;20037;-75
2022/08/14 11:52:14;;;;;;;5.15;1.42;;;;;;;;;;5029269;28;20029;-75
2022/08/14 11:54:41;;;;;;;4.28;1.33;;;;;;;;;;5035608;28;20036;-76
2022/08/14 11:57:14;;;;;;;3.75;1.30;;;;;;;;;;5034569;28;20037;-74
2022/08/14 11:59:40;;;;;;;;;;;;;;;;;;5039089;28;20032;-75
2022/08/14 12:02:12;;;;;;;4.60;1.40;;;;;;;;;;5032236;28;19909;-74
2022/08/14 12:04:47;;;;;;;4.32;1.73;;;;;;;;;;5041063;28;20126;-74
2022/08/14 12:07:12;;;;;;;2.35;1.30;;;;;;;;;;5040044;28;20025;-74
2022/08/14 12:09:37;;;;;;;2.65;1.30;;;;;;;;;;5047097;28;20167;-75
2022/08/14 12:12:15;;;;;;;5.93;1.42;;;;;;;;;;5039964;28;20022;-74
2022/08/14 12:14:48;;;;;;;2.80;1.50;;;;;;;;;;5050325;28;20511;-74
2022/08/14 12:17:13;;;;;;;2.95;1.23;;;;;;;;;;5036541;28;20035;-75
2022/08/14 12:19:43;;;;;;;4.10;1.10;;;;;;;;;;5049833;28;20025;-76
2022/08/14 12:22:08;;;;;;;4.43;1.60;;;;;;;;;;5050380;28;20049;-74
2022/08/14 12:24:34;;;;;;;2.65;1.20;;;;;;;;;;5032721;28;20171;-74
2022/08/14 12:26:59;;;;;;;2.90;1.08;;;;;;;;;;5049068;28;20035;-76
2022/08/14 12:29:24;;;;;;;2.90;1.05;;;;;;;;;;5043139;28;20032;-75
2022/08/14 12:32:02;;;;;;;4.18;1.13;;;;;;;;;;5037860;28;20128;-74
2022/08/14 12:34:31;;;;;;;6.18;1.58;;;;;;;;;;5044661;28;20080;-75
2022/08/14 12:37:02;;;;;;;2.58;1.40;;;;;;;;;;5035347;28;20106;-74
2022/08/14 12:39:28;;;;;;;5.40;1.40;;;;;;;;;;5036022;28;20025;-74
2022/08/14 12:42:00;;;;;;;2.25;1.10;;;;;;;;;;5034505;28;20041;-75
2022/08/14 12:44:29;;;;;;;3.72;1.40;;;;;;;;;;5042581;28;20484;-75
2022/08/14 12:47:14;;;;;;;5.20;1.30;;;;;;;;;;5036281;28;20032;-75
2022/08/14 12:49:52;;;;;;;5.40;1.50;;;;;;;;;;5039882;28;20528;-74
2022/08/14 12:52:26;;;;;;;3.42;1.27;;;;;;;;;;5051599;28;20036;-75
2022/08/14 12:54:58;;;;;;;4.40;1.33;;;;;;;;;;5039678;28;20045;-75
2022/08/14 12:57:31;;;;;;;3.42;1.23;;;;;;;;;;5037944;28;20041;-75
2022/08/14 13:00:09;;;;;;;3.35;1.10;;;;;;;;;;5043313;28;20071;-74
2022/08/14 13:02:38;;;;;;;2.35;1.10;;;;;;;;;;5051906;28;20074;-74
2022/08/14 13:05:04;;;;;;;3.35;1.20;;;;;;;;;;5043923;28;21562;-74
2022/08/14 13:07:29;;;;;;;3.92;1.30;;;;;;;;;;5045612;28;20028;-75
2022/08/14 13:09:55;;;;;;;7.88;1.50;;;;;;;;;;5043375;28;20025;-75
2022/08/14 13:12:24;;;;;;;3.10;1.35;;;;;;;;;;5041198;28;20037;-74
2022/08/14 13:14:49;;;;;;;4.38;1.35;;;;;;;;;;5050640;28;20428;-74
2022/08/14 13:17:15;;;;;;;2.95;1.60;;;;;;;;;;5046544;28;20111;-74
2022/08/14 13:19:44;;;;;;;4.00;1.30;;;;;;;;;;5051111;28;20040;-74
2022/08/14 13:22:10;;;;;;;2.58;1.40;;;;;;;;;;5039390;28;20063;-74
2022/08/14 13:24:37;;;;;;;3.63;1.52;;;;;;;;;;5043017;28;20112;-75
2022/08/14 13:27:03;;;;;;;5.22;1.30;;;;;;;;;;5040662;28;20040;-75
2022/08/14 13:29:30;;;;;;;2.90;1.70;;;;;;;;;;5044405;28;20419;-75
2022/08/14 13:31:57;;;;;;;3.50;1.63;;;;;;;;;;5035444;28;20049;-76
2022/08/14 13:34:26;;;;;;;3.95;1.90;;;;;;;;;;5043014;28;20037;-75
2022/08/14 13:36:51;;;;;;;10.07;1.98;;;;;;;;;;5041557;28;20451;-76
2022/08/14 13:39:18;;;;;;;4.82;1.77;;;;;;;;;;5039613;28;20057;-76
2022/08/14 13:41:43;;;;;;;2.58;1.60;;;;;;;;;;5038935;28;20439;-76
2022/08/14 13:44:09;;;;;;;2.85;1.90;;;;;;;;;;5035413;28;20028;-76
2022/08/14 13:46:35;;;;;;;3.35;1.60;;;;;;;;;;5038277;28;20038;-76
2022/08/14 13:49:01;;;;;;;3.15;1.90;;;;;;;;;;5046003;28;20032;-76
2022/08/14 13:51:29;;;;;;;4.10;1.77;;;;;;;;;;5040853;28;20049;-75
2022/08/14 13:53:55;;;;;;;5.65;2.03;;;;;;;;;;5037733;28;20037;-76
2022/08/14 13:56:25;;;;;;;3.03;2.03;;;;;;;;;;5039767;28;20397;-75
2022/08/14 13:58:51;;;;;;;2.58;1.70;;;;;;;;;;5039436;28;20036;-75
2022/08/14 14:01:16;;;;;;;11.10;2.30;;;;;;;;;;5041816;28;20026;-76
2022/08/14 14:03:48;;;;;;;5.15;1.88;;;;;;;;;;5038448;28;20465;-76
2022/08/14 14:06:15;;;;;;;7.82;2.30;;;;;;;;;;5047647;28;20029;-76
2022/08/14 14:08:45;;;;;;;3.63;1.90;;;;;;;;;;5042994;28;20092;-76
2022/08/14 14:11:12;;;;;;;7.35;1.75;;;;;;;;;;5031055;28;20440;-77
2022/08/14 14:13:38;;;;;;;5.15;1.80;;;;;;;;;;5041378;28;20029;-75
2022/08/14 14:16:05;;;;;;;3.53;1.83;;;;;;;;;;5048394;28;20044;-76
2022/08/14 14:18:30;;;;;;;3.58;1.60;;;;;;;;;;5041482;28;20033;-76
2022/08/14 14:20:56;;;;;;;4.15;1.60;;;;;;;;;;5038135;28;20025;-76
2022/08/14 14:23:22;;;;;;;4.15;1.70;;;;;;;;;;5043554;28;20095;-75
2022/08/14 14:25:47;;;;;;;3.13;1.67;;;;;;;;;;5040524;28;20025;-75
2022/08/14 14:28:16;;;;;;;4.55;1.60;;;;;;;;;;5020437;28;20018;-78
2022/08/14 14:30:45;;;;;;;3.83;2.00;;;;;;;;;;5036762;28;20470;-76
2022/08/14 14:33:11;;;;;;;6.32;1.98;;;;;;;;;;5043093;28;20029;-76
2022/08/14 14:35:37;;;;;;;3.67;1.63;;;;;;;;;;5036521;28;20048;-75
2022/08/14 14:38:03;;;;;;;3.65;1.50;;;;;;;;;;5039898;28;20480;-76
2022/08/14 14:40:32;;;;;;;7.63;1.83;;;;;;;;;;5044410;28;20120;-76
2022/08/14 14:42:57;;;;;;;2.25;1.30;;;;;;;;;;5036275;28;20017;-76
2022/08/14 14:45:23;;;;;;;6.70;1.33;;;;;;;;;;5039912;28;20036;-76
2022/08/14 14:47:52;;;;;;;7.22;1.20;;;;;;;;;;5038216;28;20040;-75
2022/08/14 14:50:18;;;;;;;7.65;1.17;;;;;;;;;;5043748;28;20025;-76
2022/08/14 14:52:44;;;;;;;5.10;1.35;;;;;;;;;;5048432;28;20029;-77
2022/08/14 14:55:11;;;;;;;4.18;1.45;;;;;;;;;;5031587;28;20476;-76